sensor_id;sensor_type;location;lat;lon;timestamp;P1;durP1;ratioP1;P2;durP2;ratioP2
44304;SDS011;30019;50.576;8.568;2023-04-15T00:01:02;5.82;;;3.67;;
44304;SDS011;30019;50.576;8.568;2023-04-15T00:03:29;9.52;;;4.07;;
44304;SDS011;30019;50.576;8.568;2023-04-15T00:05:56;9.00;;;3.87;;
44304;SDS011;30019;50.576;8.568;2023-04-15T00:08:22;6.57;;;3.53;;
44304;SDS011;30019;50.576;8.568;2023-04-15T00:10:47;8.30;;;4.05;;
44304;SDS011;30019;50.576;8.568;2023-04-15T00:13:13;8.68;;;4.57;;
44304;SDS011;30019;50.576;8.568;2023-04-15T00:15:39;8.70;;;3.97;;
44304;SDS011;30019;50.576;8.568;2023-04-15T00:18:05;9.75;;;4.05;;
44304;SDS011;30019;50.576;8.568;2023-04-15T00:20:32;12.48;;;4.45;;
44304;SDS011;30019;50.576;8.568;2023-04-15T00:22:58;10.57;;;4.30;;
44304;SDS011;30019;50.576;8.568;2023-04-15T00:25:24;8.90;;;4.55;;
44304;SDS011;30019;50.576;8.568;2023-04-15T00:27:50;11.10;;;3.95;;
44304;SDS011;30019;50.576;8.568;2023-04-15T00:30:16;8.20;;;4.20;;
44304;SDS011;30019;50.576;8.568;2023-04-15T00:32:41;9.52;;;4.30;;
44304;SDS011;30019;50.576;8.568;2023-04-15T00:35:07;5.87;;;3.95;;
44304;SDS011;30019;50.576;8.568;2023-04-15T00:37:33;8.60;;;3.92;;
44304;SDS011;30019;50.576;8.568;2023-04-15T00:39:59;14.23;;;4.43;;
44304;SDS011;30019;50.576;8.568;2023-04-15T00:42:25;11.32;;;4.40;;
44304;SDS011;30019;50.576;8.568;2023-04-15T00:44:52;11.63;;;4.22;;
44304;SDS011;30019;50.576;8.568;2023-04-15T00:47:17;10.55;;;3.83;;
44304;SDS011;30019;50.576;8.568;2023-04-15T00:49:45;11.55;;;4.18;;
44304;SDS011;30019;50.576;8.568;2023-04-15T00:52:11;6.03;;;4.18;;
44304;SDS011;30019;50.576;8.568;2023-04-15T00:54:37;10.55;;;4.35;;
44304;SDS011;30019;50.576;8.568;2023-04-15T00:57:04;6.70;;;3.75;;
44304;SDS011;30019;50.576;8.568;2023-04-15T00:59:30;6.87;;;3.95;;
44304;SDS011;30019;50.576;8.568;2023-04-15T01:01:57;6.15;;;3.83;;
44304;SDS011;30019;50.576;8.568;2023-04-15T01:04:23;8.73;;;4.18;;
44304;SDS011;30019;50.576;8.568;2023-04-15T01:06:49;9.38;;;4.28;;
44304;SDS011;30019;50.576;8.568;2023-04-15T01:09:15;6.45;;;3.87;;
44304;SDS011;30019;50.576;8.568;2023-04-15T01:11:41;11.80;;;4.12;;
44304;SDS011;30019;50.576;8.568;2023-04-15T01:14:07;6.87;;;3.58;;
44304;SDS011;30019;50.576;8.568;2023-04-15T01:16:34;10.82;;;4.05;;
44304;SDS011;30019;50.576;8.568;2023-04-15T01:19:03;11.07;;;4.95;;
44304;SDS011;30019;50.576;8.568;2023-04-15T01:21:35;11.95;;;4.22;;
44304;SDS011;30019;50.576;8.568;2023-04-15T01:24:10;8.40;;;4.10;;
44304;SDS011;30019;50.576;8.568;2023-04-15T01:26:37;8.35;;;3.60;;
44304;SDS011;30019;50.576;8.568;2023-04-15T01:29:03;8.07;;;4.30;;
44304;SDS011;30019;50.576;8.568;2023-04-15T01:31:28;11.12;;;4.35;;
44304;SDS011;30019;50.576;8.568;2023-04-15T01:33:54;8.07;;;4.90;;
44304;SDS011;30019;50.576;8.568;2023-04-15T01:36:20;7.60;;;4.15;;
44304;SDS011;30019;50.576;8.568;2023-04-15T01:38:45;7.87;;;3.83;;
44304;SDS011;30019;50.576;8.568;2023-04-15T01:41:12;11.68;;;5.57;;
44304;SDS011;30019;50.576;8.568;2023-04-15T01:43:38;7.85;;;3.55;;
44304;SDS011;30019;50.576;8.568;2023-04-15T01:46:04;10.95;;;4.35;;
44304;SDS011;30019;50.576;8.568;2023-04-15T01:48:30;8.60;;;3.90;;
44304;SDS011;30019;50.576;8.568;2023-04-15T01:50:56;8.73;;;3.78;;
44304;SDS011;30019;50.576;8.568;2023-04-15T01:53:23;11.27;;;4.55;;
44304;SDS011;30019;50.576;8.568;2023-04-15T01:55:49;8.27;;;3.90;;
44304;SDS011;30019;50.576;8.568;2023-04-15T01:58:16;8.90;;;4.28;;
44304;SDS011;30019;50.576;8.568;2023-04-15T02:00:42;6.30;;;3.78;;
44304;SDS011;30019;50.576;8.568;2023-04-15T02:03:07;9.23;;;4.93;;
44304;SDS011;30019;50.576;8.568;2023-04-15T02:05:33;6.60;;;3.90;;
44304;SDS011;30019;50.576;8.568;2023-04-15T02:07:59;7.22;;;4.03;;
44304;SDS011;30019;50.576;8.568;2023-04-15T02:10:25;5.97;;;3.83;;
44304;SDS011;30019;50.576;8.568;2023-04-15T02:12:51;9.98;;;4.65;;
44304;SDS011;30019;50.576;8.568;2023-04-15T02:15:18;9.95;;;4.45;;
44304;SDS011;30019;50.576;8.568;2023-04-15T02:17:44;8.30;;;4.18;;
44304;SDS011;30019;50.576;8.568;2023-04-15T02:20:14;9.60;;;4.18;;
44304;SDS011;30019;50.576;8.568;2023-04-15T02:22:45;12.00;;;4.40;;
44304;SDS011;30019;50.576;8.568;2023-04-15T02:25:11;11.18;;;4.05;;
44304;SDS011;30019;50.576;8.568;2023-04-15T02:27:36;6.85;;;4.22;;
44304;SDS011;30019;50.576;8.568;2023-04-15T02:30:02;8.73;;;3.50;;
44304;SDS011;30019;50.576;8.568;2023-04-15T02:32:28;9.13;;;4.55;;
44304;SDS011;30019;50.576;8.568;2023-04-15T02:34:53;6.00;;;3.78;;
44304;SDS011;30019;50.576;8.568;2023-04-15T02:37:19;8.98;;;4.40;;
44304;SDS011;30019;50.576;8.568;2023-04-15T02:39:45;11.93;;;4.50;;
44304;SDS011;30019;50.576;8.568;2023-04-15T02:42:11;8.77;;;4.43;;
44304;SDS011;30019;50.576;8.568;2023-04-15T02:44:37;4.95;;;3.72;;
44304;SDS011;30019;50.576;8.568;2023-04-15T02:47:02;6.82;;;3.75;;
44304;SDS011;30019;50.576;8.568;2023-04-15T02:49:30;9.98;;;3.87;;
44304;SDS011;30019;50.576;8.568;2023-04-15T02:51:56;6.35;;;3.87;;
44304;SDS011;30019;50.576;8.568;2023-04-15T02:54:23;8.88;;;4.45;;
44304;SDS011;30019;50.576;8.568;2023-04-15T02:56:50;5.47;;;4.12;;
44304;SDS011;30019;50.576;8.568;2023-04-15T02:59:19;15.13;;;4.78;;
44304;SDS011;30019;50.576;8.568;2023-04-15T03:01:45;7.55;;;3.80;;
44304;SDS011;30019;50.576;8.568;2023-04-15T03:04:10;9.00;;;4.28;;
44304;SDS011;30019;50.576;8.568;2023-04-15T03:06:37;6.20;;;3.80;;
44304;SDS011;30019;50.576;8.568;2023-04-15T03:09:02;10.98;;;4.37;;
44304;SDS011;30019;50.576;8.568;2023-04-15T03:11:28;11.50;;;4.68;;
44304;SDS011;30019;50.576;8.568;2023-04-15T03:13:54;7.45;;;3.97;;
44304;SDS011;30019;50.576;8.568;2023-04-15T03:16:19;6.55;;;3.83;;
44304;SDS011;30019;50.576;8.568;2023-04-15T03:18:45;11.27;;;4.45;;
44304;SDS011;30019;50.576;8.568;2023-04-15T03:21:11;9.35;;;4.45;;
44304;SDS011;30019;50.576;8.568;2023-04-15T03:23:36;6.10;;;4.30;;
44304;SDS011;30019;50.576;8.568;2023-04-15T03:26:02;9.75;;;5.03;;
44304;SDS011;30019;50.576;8.568;2023-04-15T03:28:28;11.27;;;6.18;;
44304;SDS011;30019;50.576;8.568;2023-04-15T03:30:54;9.35;;;4.50;;
44304;SDS011;30019;50.576;8.568;2023-04-15T03:33:20;12.00;;;4.60;;
44304;SDS011;30019;50.576;8.568;2023-04-15T03:35:45;11.32;;;4.82;;
44304;SDS011;30019;50.576;8.568;2023-04-15T03:38:11;6.68;;;4.10;;
44304;SDS011;30019;50.576;8.568;2023-04-15T03:40:37;10.82;;;4.35;;
44304;SDS011;30019;50.576;8.568;2023-04-15T03:43:05;10.50;;;5.35;;
44304;SDS011;30019;50.576;8.568;2023-04-15T03:45:31;9.38;;;4.35;;
44304;SDS011;30019;50.576;8.568;2023-04-15T03:47:56;8.05;;;4.28;;
44304;SDS011;30019;50.576;8.568;2023-04-15T03:50:22;12.88;;;5.05;;
44304;SDS011;30019;50.576;8.568;2023-04-15T03:52:47;10.45;;;4.75;;
44304;SDS011;30019;50.576;8.568;2023-04-15T03:55:13;9.07;;;4.68;;
44304;SDS011;30019;50.576;8.568;2023-04-15T03:57:39;8.98;;;5.15;;
44304;SDS011;30019;50.576;8.568;2023-04-15T04:00:05;13.25;;;5.07;;
44304;SDS011;30019;50.576;8.568;2023-04-15T04:02:33;9.82;;;4.97;;
44304;SDS011;30019;50.576;8.568;2023-04-15T04:04:58;8.02;;;4.80;;
44304;SDS011;30019;50.576;8.568;2023-04-15T04:07:24;8.75;;;4.85;;
44304;SDS011;30019;50.576;8.568;2023-04-15T04:09:50;8.68;;;4.70;;
44304;SDS011;30019;50.576;8.568;2023-04-15T04:12:16;16.10;;;5.07;;
44304;SDS011;30019;50.576;8.568;2023-04-15T04:14:41;9.07;;;5.25;;
44304;SDS011;30019;50.576;8.568;2023-04-15T04:17:07;8.98;;;5.15;;
44304;SDS011;30019;50.576;8.568;2023-04-15T04:19:32;7.93;;;4.35;;
44304;SDS011;30019;50.576;8.568;2023-04-15T04:21:58;9.70;;;4.85;;
44304;SDS011;30019;50.576;8.568;2023-04-15T04:24:24;10.80;;;5.25;;
44304;SDS011;30019;50.576;8.568;2023-04-15T04:26:49;9.52;;;4.55;;
44304;SDS011;30019;50.576;8.568;2023-04-15T04:29:15;9.32;;;5.18;;
44304;SDS011;30019;50.576;8.568;2023-04-15T04:31:41;9.35;;;4.65;;
44304;SDS011;30019;50.576;8.568;2023-04-15T04:34:06;9.70;;;4.43;;
44304;SDS011;30019;50.576;8.568;2023-04-15T04:36:32;10.65;;;4.87;;
44304;SDS011;30019;50.576;8.568;2023-04-15T04:38:57;7.43;;;4.25;;
44304;SDS011;30019;50.576;8.568;2023-04-15T04:41:23;8.43;;;4.25;;
44304;SDS011;30019;50.576;8.568;2023-04-15T04:43:48;9.30;;;4.22;;
44304;SDS011;30019;50.576;8.568;2023-04-15T04:46:14;8.25;;;4.07;;
44304;SDS011;30019;50.576;8.568;2023-04-15T04:48:39;12.05;;;5.85;;
44304;SDS011;30019;50.576;8.568;2023-04-15T04:51:05;15.18;;;6.45;;
44304;SDS011;30019;50.576;8.568;2023-04-15T04:53:32;14.80;;;7.77;;
44304;SDS011;30019;50.576;8.568;2023-04-15T04:55:57;26.08;;;10.00;;
44304;SDS011;30019;50.576;8.568;2023-04-15T04:58:23;20.70;;;9.05;;
44304;SDS011;30019;50.576;8.568;2023-04-15T05:00:49;21.30;;;9.23;;
44304;SDS011;30019;50.576;8.568;2023-04-15T05:03:15;20.88;;;7.70;;
44304;SDS011;30019;50.576;8.568;2023-04-15T05:05:40;23.62;;;8.68;;
44304;SDS011;30019;50.576;8.568;2023-04-15T05:08:06;9.48;;;4.85;;
44304;SDS011;30019;50.576;8.568;2023-04-15T05:10:31;9.80;;;4.60;;
44304;SDS011;30019;50.576;8.568;2023-04-15T05:12:57;9.75;;;4.70;;
44304;SDS011;30019;50.576;8.568;2023-04-15T05:15:23;10.77;;;4.57;;
44304;SDS011;30019;50.576;8.568;2023-04-15T05:17:49;9.55;;;4.00;;
44304;SDS011;30019;50.576;8.568;2023-04-15T05:20:15;8.82;;;4.20;;
44304;SDS011;30019;50.576;8.568;2023-04-15T05:22:41;8.07;;;4.82;;
44304;SDS011;30019;50.576;8.568;2023-04-15T05:25:07;13.30;;;5.00;;
44304;SDS011;30019;50.576;8.568;2023-04-15T05:27:33;4.95;;;4.03;;
44304;SDS011;30019;50.576;8.568;2023-04-15T05:29:58;7.95;;;4.22;;
44304;SDS011;30019;50.576;8.568;2023-04-15T05:32:24;8.82;;;4.20;;
44304;SDS011;30019;50.576;8.568;2023-04-15T05:34:50;13.65;;;4.80;;
44304;SDS011;30019;50.576;8.568;2023-04-15T05:37:16;10.63;;;3.67;;
44304;SDS011;30019;50.576;8.568;2023-04-15T05:39:44;7.62;;;4.72;;
44304;SDS011;30019;50.576;8.568;2023-04-15T05:42:10;6.22;;;3.92;;
44304;SDS011;30019;50.576;8.568;2023-04-15T05:44:36;8.10;;;4.62;;
44304;SDS011;30019;50.576;8.568;2023-04-15T05:47:01;7.07;;;3.58;;
44304;SDS011;30019;50.576;8.568;2023-04-15T05:49:27;8.25;;;3.75;;
44304;SDS011;30019;50.576;8.568;2023-04-15T05:51:53;7.55;;;4.30;;
44304;SDS011;30019;50.576;8.568;2023-04-15T05:54:19;9.48;;;4.28;;
44304;SDS011;30019;50.576;8.568;2023-04-15T05:56:47;7.78;;;3.80;;
44304;SDS011;30019;50.576;8.568;2023-04-15T05:59:13;6.82;;;4.03;;
44304;SDS011;30019;50.576;8.568;2023-04-15T06:01:38;6.75;;;3.72;;
44304;SDS011;30019;50.576;8.568;2023-04-15T06:04:04;5.97;;;4.32;;
44304;SDS011;30019;50.576;8.568;2023-04-15T06:06:30;7.65;;;4.47;;
44304;SDS011;30019;50.576;8.568;2023-04-15T06:08:56;10.80;;;3.87;;
44304;SDS011;30019;50.576;8.568;2023-04-15T06:11:22;7.72;;;4.55;;
44304;SDS011;30019;50.576;8.568;2023-04-15T06:13:48;9.95;;;4.43;;
44304;SDS011;30019;50.576;8.568;2023-04-15T06:16:13;7.72;;;3.85;;
44304;SDS011;30019;50.576;8.568;2023-04-15T06:18:39;7.35;;;4.03;;
44304;SDS011;30019;50.576;8.568;2023-04-15T06:21:04;7.97;;;4.57;;
44304;SDS011;30019;50.576;8.568;2023-04-15T06:23:32;7.03;;;3.53;;
44304;SDS011;30019;50.576;8.568;2023-04-15T06:25:59;9.52;;;4.53;;
44304;SDS011;30019;50.576;8.568;2023-04-15T06:28:25;8.25;;;4.30;;
44304;SDS011;30019;50.576;8.568;2023-04-15T06:30:50;11.05;;;4.00;;
44304;SDS011;30019;50.576;8.568;2023-04-15T06:33:17;9.52;;;4.30;;
44304;SDS011;30019;50.576;8.568;2023-04-15T06:35:43;7.55;;;4.07;;
44304;SDS011;30019;50.576;8.568;2023-04-15T06:38:08;8.02;;;4.70;;
44304;SDS011;30019;50.576;8.568;2023-04-15T06:40:34;10.48;;;4.62;;
44304;SDS011;30019;50.576;8.568;2023-04-15T06:43:00;8.90;;;4.43;;
44304;SDS011;30019;50.576;8.568;2023-04-15T06:45:25;11.82;;;4.40;;
44304;SDS011;30019;50.576;8.568;2023-04-15T06:47:51;11.82;;;4.65;;
44304;SDS011;30019;50.576;8.568;2023-04-15T06:50:17;10.38;;;4.53;;
44304;SDS011;30019;50.576;8.568;2023-04-15T06:52:42;11.18;;;4.68;;
44304;SDS011;30019;50.576;8.568;2023-04-15T06:55:08;9.52;;;4.78;;
44304;SDS011;30019;50.576;8.568;2023-04-15T06:57:34;11.10;;;4.75;;
44304;SDS011;30019;50.576;8.568;2023-04-15T07:00:00;6.43;;;4.32;;
44304;SDS011;30019;50.576;8.568;2023-04-15T07:02:25;10.27;;;4.30;;
44304;SDS011;30019;50.576;8.568;2023-04-15T07:04:51;11.65;;;5.60;;
44304;SDS011;30019;50.576;8.568;2023-04-15T07:07:17;9.82;;;4.80;;
44304;SDS011;30019;50.576;8.568;2023-04-15T07:09:42;12.85;;;4.45;;
44304;SDS011;30019;50.576;8.568;2023-04-15T07:12:08;9.13;;;4.68;;
44304;SDS011;30019;50.576;8.568;2023-04-15T07:14:34;9.20;;;4.25;;
44304;SDS011;30019;50.576;8.568;2023-04-15T07:17:00;10.88;;;3.95;;
44304;SDS011;30019;50.576;8.568;2023-04-15T07:19:26;8.77;;;4.07;;
44304;SDS011;30019;50.576;8.568;2023-04-15T07:21:52;6.50;;;3.53;;
44304;SDS011;30019;50.576;8.568;2023-04-15T07:24:17;8.68;;;3.65;;
44304;SDS011;30019;50.576;8.568;2023-04-15T07:26:44;5.53;;;3.10;;
44304;SDS011;30019;50.576;8.568;2023-04-15T07:29:10;7.25;;;3.55;;
44304;SDS011;30019;50.576;8.568;2023-04-15T07:31:36;9.93;;;4.37;;
44304;SDS011;30019;50.576;8.568;2023-04-15T07:34:02;7.78;;;3.03;;
44304;SDS011;30019;50.576;8.568;2023-04-15T07:36:29;5.57;;;3.15;;
44304;SDS011;30019;50.576;8.568;2023-04-15T07:38:54;5.82;;;3.12;;
44304;SDS011;30019;50.576;8.568;2023-04-15T07:41:21;6.95;;;3.40;;
44304;SDS011;30019;50.576;8.568;2023-04-15T07:43:47;7.93;;;4.57;;
44304;SDS011;30019;50.576;8.568;2023-04-15T07:46:13;6.22;;;3.62;;
44304;SDS011;30019;50.576;8.568;2023-04-15T07:48:38;8.93;;;4.05;;
44304;SDS011;30019;50.576;8.568;2023-04-15T07:51:04;5.35;;;3.70;;
44304;SDS011;30019;50.576;8.568;2023-04-15T07:53:30;9.18;;;3.45;;
44304;SDS011;30019;50.576;8.568;2023-04-15T07:55:57;3.80;;;3.17;;
44304;SDS011;30019;50.576;8.568;2023-04-15T07:58:23;6.57;;;2.95;;
44304;SDS011;30019;50.576;8.568;2023-04-15T08:00:49;6.07;;;3.30;;
44304;SDS011;30019;50.576;8.568;2023-04-15T08:03:14;7.45;;;3.35;;
44304;SDS011;30019;50.576;8.568;2023-04-15T08:05:40;5.90;;;3.42;;
44304;SDS011;30019;50.576;8.568;2023-04-15T08:08:05;9.75;;;4.43;;
44304;SDS011;30019;50.576;8.568;2023-04-15T08:10:31;7.43;;;4.15;;
44304;SDS011;30019;50.576;8.568;2023-04-15T08:12:57;5.47;;;3.12;;
44304;SDS011;30019;50.576;8.568;2023-04-15T08:15:22;4.90;;;3.45;;
44304;SDS011;30019;50.576;8.568;2023-04-15T08:17:48;6.32;;;3.78;;
44304;SDS011;30019;50.576;8.568;2023-04-15T08:20:13;4.55;;;3.30;;
44304;SDS011;30019;50.576;8.568;2023-04-15T08:22:39;7.00;;;3.62;;
44304;SDS011;30019;50.576;8.568;2023-04-15T08:25:05;5.10;;;3.20;;
44304;SDS011;30019;50.576;8.568;2023-04-15T08:27:31;7.97;;;3.33;;
44304;SDS011;30019;50.576;8.568;2023-04-15T08:29:57;5.25;;;3.22;;
44304;SDS011;30019;50.576;8.568;2023-04-15T08:32:22;8.23;;;3.15;;
44304;SDS011;30019;50.576;8.568;2023-04-15T08:34:50;5.72;;;3.30;;
44304;SDS011;30019;50.576;8.568;2023-04-15T08:37:15;6.97;;;3.25;;
44304;SDS011;30019;50.576;8.568;2023-04-15T08:39:41;3.00;;;2.65;;
44304;SDS011;30019;50.576;8.568;2023-04-15T08:42:10;3.37;;;2.70;;
44304;SDS011;30019;50.576;8.568;2023-04-15T08:44:40;10.38;;;3.28;;
44304;SDS011;30019;50.576;8.568;2023-04-15T08:47:07;5.30;;;2.87;;
44304;SDS011;30019;50.576;8.568;2023-04-15T08:49:34;8.65;;;2.95;;
44304;SDS011;30019;50.576;8.568;2023-04-15T08:52:04;4.20;;;2.92;;
44304;SDS011;30019;50.576;8.568;2023-04-15T08:54:30;4.80;;;2.80;;
44304;SDS011;30019;50.576;8.568;2023-04-15T08:56:57;2.92;;;2.58;;
44304;SDS011;30019;50.576;8.568;2023-04-15T08:59:23;3.37;;;2.30;;
44304;SDS011;30019;50.576;8.568;2023-04-15T09:01:49;2.85;;;1.92;;
44304;SDS011;30019;50.576;8.568;2023-04-15T09:04:16;3.62;;;2.70;;
44304;SDS011;30019;50.576;8.568;2023-04-15T09:06:42;3.47;;;2.50;;
44304;SDS011;30019;50.576;8.568;2023-04-15T09:09:07;4.10;;;2.60;;
44304;SDS011;30019;50.576;8.568;2023-04-15T09:11:33;3.05;;;2.42;;
44304;SDS011;30019;50.576;8.568;2023-04-15T09:14:00;2.87;;;2.40;;
44304;SDS011;30019;50.576;8.568;2023-04-15T09:16:26;5.43;;;3.40;;
44304;SDS011;30019;50.576;8.568;2023-04-15T09:18:52;5.87;;;3.42;;
44304;SDS011;30019;50.576;8.568;2023-04-15T09:21:18;8.30;;;3.10;;
44304;SDS011;30019;50.576;8.568;2023-04-15T09:23:54;5.95;;;3.40;;
44304;SDS011;30019;50.576;8.568;2023-04-15T09:26:42;3.37;;;2.87;;
44304;SDS011;30019;50.576;8.568;2023-04-15T09:29:08;5.20;;;2.85;;
44304;SDS011;30019;50.576;8.568;2023-04-15T09:31:37;4.05;;;3.00;;
44304;SDS011;30019;50.576;8.568;2023-04-15T09:34:03;5.03;;;3.20;;
44304;SDS011;30019;50.576;8.568;2023-04-15T09:36:35;5.30;;;2.85;;
44304;SDS011;30019;50.576;8.568;2023-04-15T09:39:12;6.43;;;3.85;;
44304;SDS011;30019;50.576;8.568;2023-04-15T09:41:38;3.80;;;3.10;;
44304;SDS011;30019;50.576;8.568;2023-04-15T09:44:04;4.07;;;2.85;;
44304;SDS011;30019;50.576;8.568;2023-04-15T09:46:43;4.35;;;2.70;;
44304;SDS011;30019;50.576;8.568;2023-04-15T09:49:09;3.92;;;2.70;;
44304;SDS011;30019;50.576;8.568;2023-04-15T09:51:36;5.25;;;2.60;;
44304;SDS011;30019;50.576;8.568;2023-04-15T09:54:02;5.12;;;2.75;;
44304;SDS011;30019;50.576;8.568;2023-04-15T09:56:35;5.20;;;2.60;;
44304;SDS011;30019;50.576;8.568;2023-04-15T09:59:02;3.80;;;2.55;;
44304;SDS011;30019;50.576;8.568;2023-04-15T10:01:29;5.85;;;3.28;;
44304;SDS011;30019;50.576;8.568;2023-04-15T10:03:56;3.42;;;2.45;;
44304;SDS011;30019;50.576;8.568;2023-04-15T10:06:22;3.15;;;2.62;;
44304;SDS011;30019;50.576;8.568;2023-04-15T10:08:50;4.37;;;2.65;;
44304;SDS011;30019;50.576;8.568;2023-04-15T10:11:17;2.90;;;2.40;;
44304;SDS011;30019;50.576;8.568;2023-04-15T10:13:43;2.28;;;2.12;;
44304;SDS011;30019;50.576;8.568;2023-04-15T10:16:13;6.07;;;2.40;;
44304;SDS011;30019;50.576;8.568;2023-04-15T10:18:44;5.43;;;2.73;;
44304;SDS011;30019;50.576;8.568;2023-04-15T10:21:11;4.15;;;2.53;;
44304;SDS011;30019;50.576;8.568;2023-04-15T10:23:40;2.67;;;2.40;;
44304;SDS011;30019;50.576;8.568;2023-04-15T10:26:06;2.78;;;1.90;;
44304;SDS011;30019;50.576;8.568;2023-04-15T10:28:33;5.00;;;2.30;;
44304;SDS011;30019;50.576;8.568;2023-04-15T10:30:59;1.95;;;1.48;;
44304;SDS011;30019;50.576;8.568;2023-04-15T10:33:26;1.98;;;1.52;;
44304;SDS011;30019;50.576;8.568;2023-04-15T10:35:53;3.20;;;1.87;;
44304;SDS011;30019;50.576;8.568;2023-04-15T10:38:39;2.00;;;1.62;;
44304;SDS011;30019;50.576;8.568;2023-04-15T10:41:25;1.85;;;1.50;;
44304;SDS011;30019;50.576;8.568;2023-04-15T10:43:54;2.50;;;1.50;;
44304;SDS011;30019;50.576;8.568;2023-04-15T10:46:34;2.60;;;1.95;;
44304;SDS011;30019;50.576;8.568;2023-04-15T10:49:14;4.43;;;3.10;;
44304;SDS011;30019;50.576;8.568;2023-04-15T10:51:41;2.03;;;1.83;;
44304;SDS011;30019;50.576;8.568;2023-04-15T10:54:12;1.85;;;1.75;;
44304;SDS011;30019;50.576;8.568;2023-04-15T10:59:29;2.67;;;2.10;;
44304;SDS011;30019;50.576;8.568;2023-04-15T11:01:59;1.90;;;1.80;;
44304;SDS011;30019;50.576;8.568;2023-04-15T11:07:35;2.08;;;1.35;;
44304;SDS011;30019;50.576;8.568;2023-04-15T11:10:07;1.65;;;1.52;;
44304;SDS011;30019;50.576;8.568;2023-04-15T11:12:58;1.90;;;1.80;;
44304;SDS011;30019;50.576;8.568;2023-04-15T11:18:11;1.50;;;1.40;;
44304;SDS011;30019;50.576;8.568;2023-04-15T11:23:11;1.80;;;1.70;;
44304;SDS011;30019;50.576;8.568;2023-04-15T11:25:39;1.90;;;1.40;;
44304;SDS011;30019;50.576;8.568;2023-04-15T11:28:05;1.60;;;1.50;;
44304;SDS011;30019;50.576;8.568;2023-04-15T11:30:34;1.62;;;1.52;;
44304;SDS011;30019;50.576;8.568;2023-04-15T11:33:02;2.12;;;1.73;;
44304;SDS011;30019;50.576;8.568;2023-04-15T11:35:29;2.83;;;2.53;;
44304;SDS011;30019;50.576;8.568;2023-04-15T11:37:55;2.00;;;1.80;;
44304;SDS011;30019;50.576;8.568;2023-04-15T11:40:23;2.30;;;2.10;;
44304;SDS011;30019;50.576;8.568;2023-04-15T11:43:09;3.37;;;2.53;;
44304;SDS011;30019;50.576;8.568;2023-04-15T11:45:53;1.90;;;1.80;;
44304;SDS011;30019;50.576;8.568;2023-04-15T11:48:25;1.98;;;1.85;;
44304;SDS011;30019;50.576;8.568;2023-04-15T11:51:13;2.92;;;2.35;;
44304;SDS011;30019;50.576;8.568;2023-04-15T11:53:40;4.75;;;2.58;;
44304;SDS011;30019;50.576;8.568;2023-04-15T11:56:08;4.62;;;3.50;;
44304;SDS011;30019;50.576;8.568;2023-04-15T11:58:36;6.37;;;4.43;;
44304;SDS011;30019;50.576;8.568;2023-04-15T12:01:02;9.13;;;4.78;;
44304;SDS011;30019;50.576;8.568;2023-04-15T12:03:29;6.37;;;4.50;;
44304;SDS011;30019;50.576;8.568;2023-04-15T12:06:09;8.30;;;5.72;;
44304;SDS011;30019;50.576;8.568;2023-04-15T12:11:14;5.15;;;4.22;;
44304;SDS011;30019;50.576;8.568;2023-04-15T12:13:47;4.00;;;3.60;;
44304;SDS011;30019;50.576;8.568;2023-04-15T12:16:17;6.37;;;3.70;;
44304;SDS011;30019;50.576;8.568;2023-04-15T12:18:44;4.45;;;3.80;;
44304;SDS011;30019;50.576;8.568;2023-04-15T12:21:11;5.30;;;3.87;;
44304;SDS011;30019;50.576;8.568;2023-04-15T12:23:47;3.75;;;3.42;;
44304;SDS011;30019;50.576;8.568;2023-04-15T12:26:16;5.43;;;4.07;;
44304;SDS011;30019;50.576;8.568;2023-04-15T12:28:43;4.07;;;3.67;;
44304;SDS011;30019;50.576;8.568;2023-04-15T12:31:09;5.22;;;3.97;;
44304;SDS011;30019;50.576;8.568;2023-04-15T12:33:37;4.72;;;3.40;;
44304;SDS011;30019;50.576;8.568;2023-04-15T12:36:03;4.30;;;3.85;;
44304;SDS011;30019;50.576;8.568;2023-04-15T12:38:28;5.80;;;4.37;;
44304;SDS011;30019;50.576;8.568;2023-04-15T12:40:55;6.87;;;5.05;;
44304;SDS011;30019;50.576;8.568;2023-04-15T12:43:22;4.70;;;4.10;;
44304;SDS011;30019;50.576;8.568;2023-04-15T12:45:47;6.03;;;3.62;;
44304;SDS011;30019;50.576;8.568;2023-04-15T12:48:13;4.18;;;3.58;;
44304;SDS011;30019;50.576;8.568;2023-04-15T12:50:38;5.45;;;3.33;;
44304;SDS011;30019;50.576;8.568;2023-04-15T12:53:04;6.45;;;3.50;;
44304;SDS011;30019;50.576;8.568;2023-04-15T12:55:29;3.30;;;3.05;;
44304;SDS011;30019;50.576;8.568;2023-04-15T12:57:56;3.53;;;3.22;;
44304;SDS011;30019;50.576;8.568;2023-04-15T13:00:21;3.45;;;3.03;;
44304;SDS011;30019;50.576;8.568;2023-04-15T13:02:47;3.08;;;2.85;;
44304;SDS011;30019;50.576;8.568;2023-04-15T13:05:13;3.33;;;3.03;;
44304;SDS011;30019;50.576;8.568;2023-04-15T13:07:39;3.25;;;2.92;;
44304;SDS011;30019;50.576;8.568;2023-04-15T13:10:06;3.08;;;2.75;;
44304;SDS011;30019;50.576;8.568;2023-04-15T13:12:32;3.20;;;2.83;;
44304;SDS011;30019;50.576;8.568;2023-04-15T13:15:00;4.20;;;2.62;;
44304;SDS011;30019;50.576;8.568;2023-04-15T13:17:26;3.70;;;2.78;;
44304;SDS011;30019;50.576;8.568;2023-04-15T13:19:52;6.68;;;3.83;;
44304;SDS011;30019;50.576;8.568;2023-04-15T13:22:17;5.57;;;3.65;;
44304;SDS011;30019;50.576;8.568;2023-04-15T13:24:43;3.62;;;3.00;;
44304;SDS011;30019;50.576;8.568;2023-04-15T13:27:08;4.65;;;3.35;;
44304;SDS011;30019;50.576;8.568;2023-04-15T13:29:34;4.85;;;3.78;;
44304;SDS011;30019;50.576;8.568;2023-04-15T13:31:59;4.62;;;3.58;;
44304;SDS011;30019;50.576;8.568;2023-04-15T13:34:25;5.32;;;4.03;;
44304;SDS011;30019;50.576;8.568;2023-04-15T13:36:51;4.53;;;3.75;;
44304;SDS011;30019;50.576;8.568;2023-04-15T13:39:16;4.00;;;3.60;;
44304;SDS011;30019;50.576;8.568;2023-04-15T13:41:42;4.03;;;3.62;;
44304;SDS011;30019;50.576;8.568;2023-04-15T13:44:07;5.43;;;4.28;;
44304;SDS011;30019;50.576;8.568;2023-04-15T13:46:33;5.22;;;4.05;;
44304;SDS011;30019;50.576;8.568;2023-04-15T13:48:59;5.00;;;3.97;;
44304;SDS011;30019;50.576;8.568;2023-04-15T13:51:24;4.97;;;4.05;;
44304;SDS011;30019;50.576;8.568;2023-04-15T13:53:50;4.10;;;3.22;;
44304;SDS011;30019;50.576;8.568;2023-04-15T13:56:16;5.87;;;3.55;;
44304;SDS011;30019;50.576;8.568;2023-04-15T13:58:42;4.05;;;3.65;;
44304;SDS011;30019;50.576;8.568;2023-04-15T14:01:07;4.47;;;3.23;;
44304;SDS011;30019;50.576;8.568;2023-04-15T14:03:33;3.50;;;3.10;;
44304;SDS011;30019;50.576;8.568;2023-04-15T14:05:59;4.28;;;3.00;;
44304;SDS011;30019;50.576;8.568;2023-04-15T14:08:25;2.50;;;2.30;;
44304;SDS011;30019;50.576;8.568;2023-04-15T14:10:51;2.67;;;2.33;;
44304;SDS011;30019;50.576;8.568;2023-04-15T14:13:16;2.35;;;2.15;;
44304;SDS011;30019;50.576;8.568;2023-04-15T14:15:43;4.53;;;2.87;;
44304;SDS011;30019;50.576;8.568;2023-04-15T14:18:09;2.53;;;2.33;;
44304;SDS011;30019;50.576;8.568;2023-04-15T14:20:35;2.60;;;2.40;;
44304;SDS011;30019;50.576;8.568;2023-04-15T14:23:00;3.78;;;2.95;;
44304;SDS011;30019;50.576;8.568;2023-04-15T14:25:26;3.67;;;2.90;;
44304;SDS011;30019;50.576;8.568;2023-04-15T14:27:51;2.72;;;2.53;;
44304;SDS011;30019;50.576;8.568;2023-04-15T14:30:17;2.42;;;2.22;;
44304;SDS011;30019;50.576;8.568;2023-04-15T14:32:43;4.78;;;3.08;;
44304;SDS011;30019;50.576;8.568;2023-04-15T14:35:08;4.00;;;2.42;;
44304;SDS011;30019;50.576;8.568;2023-04-15T14:37:34;3.03;;;2.75;;
44304;SDS011;30019;50.576;8.568;2023-04-15T14:40:00;5.28;;;2.67;;
44304;SDS011;30019;50.576;8.568;2023-04-15T14:42:25;3.92;;;2.80;;
44304;SDS011;30019;50.576;8.568;2023-04-15T14:44:51;2.67;;;2.45;;
44304;SDS011;30019;50.576;8.568;2023-04-15T14:47:16;2.53;;;2.33;;
44304;SDS011;30019;50.576;8.568;2023-04-15T14:49:42;6.40;;;4.50;;
44304;SDS011;30019;50.576;8.568;2023-04-15T14:52:08;2.50;;;2.30;;
44304;SDS011;30019;50.576;8.568;2023-04-15T14:54:33;7.55;;;3.90;;
44304;SDS011;30019;50.576;8.568;2023-04-15T14:56:59;3.83;;;3.00;;